sensor_id;sensor_type;location;lat;lon;timestamp;temperature;humidity
9323;DHT22;4700;48.822;9.270;2022-09-09T00:02:35;14.80;1.00
9323;DHT22;4700;48.822;9.270;2022-09-09T00:05:25;14.80;1.00
9323;DHT22;4700;48.822;9.270;2022-09-09T00:08:18;14.90;1.00
9323;DHT22;4700;48.822;9.270;2022-09-09T00:11:05;15.10;1.00
9323;DHT22;4700;48.822;9.270;2022-09-09T00:13:52;15.20;1.00
9323;DHT22;4700;48.822;9.270;2022-09-09T00:16:41;15.20;1.00
9323;DHT22;4700;48.822;9.270;2022-09-09T00:19:33;15.20;1.00
9323;DHT22;4700;48.822;9.270;2022-09-09T00:22:26;15.30;1.00
9323;DHT22;4700;48.822;9.270;2022-09-09T00:25:17;15.40;1.00
9323;DHT22;4700;48.822;9.270;2022-09-09T00:28:13;15.40;1.00
9323;DHT22;4700;48.822;9.270;2022-09-09T00:31:11;15.40;1.00
9323;DHT22;4700;48.822;9.270;2022-09-09T00:34:04;15.50;1.00
9323;DHT22;4700;48.822;9.270;2022-09-09T00:36:52;15.50;1.00
9323;DHT22;4700;48.822;9.270;2022-09-09T00:39:41;15.60;1.00
9323;DHT22;4700;48.822;9.270;2022-09-09T00:42:34;15.70;1.00
9323;DHT22;4700;48.822;9.270;2022-09-09T00:45:39;15.70;1.00
9323;DHT22;4700;48.822;9.270;2022-09-09T00:48:37;15.80;1.00
9323;DHT22;4700;48.822;9.270;2022-09-09T00:51:34;16.00;1.00
9323;DHT22;4700;48.822;9.270;2022-09-09T00:54:39;16.10;1.00
9323;DHT22;4700;48.822;9.270;2022-09-09T00:57:27;16.30;1.00
9323;DHT22;4700;48.822;9.270;2022-09-09T01:00:22;16.40;1.00
9323;DHT22;4700;48.822;9.270;2022-09-09T01:03:22;16.50;1.00
9323;DHT22;4700;48.822;9.270;2022-09-09T01:06:21;16.60;1.00
9323;DHT22;4700;48.822;9.270;2022-09-09T01:09:17;16.70;1.00
9323;DHT22;4700;48.822;9.270;2022-09-09T01:12:09;16.70;1.00
9323;DHT22;4700;48.822;9.270;2022-09-09T01:15:03;16.80;1.00
9323;DHT22;4700;48.822;9.270;2022-09-09T01:17:53;16.80;1.00
9323;DHT22;4700;48.822;9.270;2022-09-09T01:20:47;16.80;1.00
9323;DHT22;4700;48.822;9.270;2022-09-09T01:23:45;16.70;1.00
9323;DHT22;4700;48.822;9.270;2022-09-09T01:26:37;16.70;1.00
9323;DHT22;4700;48.822;9.270;2022-09-09T01:29:24;16.60;1.00
9323;DHT22;4700;48.822;9.270;2022-09-09T01:32:44;16.50;1.00
9323;DHT22;4700;48.822;9.270;2022-09-09T01:35:38;16.50;1.00
9323;DHT22;4700;48.822;9.270;2022-09-09T01:38:25;16.50;1.00
9323;DHT22;4700;48.822;9.270;2022-09-09T01:41:11;16.50;1.00
9323;DHT22;4700;48.822;9.270;2022-09-09T01:43:58;16.60;1.00
9323;DHT22;4700;48.822;9.270;2022-09-09T01:46:44;16.60;1.00
9323;DHT22;4700;48.822;9.270;2022-09-09T01:49:29;16.70;1.00
9323;DHT22;4700;48.822;9.270;2022-09-09T01:52:16;16.70;1.00
9323;DHT22;4700;48.822;9.270;2022-09-09T01:55:02;16.60;1.00
9323;DHT22;4700;48.822;9.270;2022-09-09T01:57:54;16.60;1.00
9323;DHT22;4700;48.822;9.270;2022-09-09T02:00:48;16.50;1.00
9323;DHT22;4700;48.822;9.270;2022-09-09T02:03:36;16.50;1.00
9323;DHT22;4700;48.822;9.270;2022-09-09T02:06:27;16.40;1.00
9323;DHT22;4700;48.822;9.270;2022-09-09T02:09:16;16.40;1.00
9323;DHT22;4700;48.822;9.270;2022-09-09T02:12:09;16.40;1.00
9323;DHT22;4700;48.822;9.270;2022-09-09T02:15:03;16.40;1.00
9323;DHT22;4700;48.822;9.270;2022-09-09T02:17:52;16.40;1.00
9323;DHT22;4700;48.822;9.270;2022-09-09T02:20:39;16.30;1.00
9323;DHT22;4700;48.822;9.270;2022-09-09T02:23:27;16.20;1.00
9323;DHT22;4700;48.822;9.270;2022-09-09T02:26:14;16.20;1.00
9323;DHT22;4700;48.822;9.270;2022-09-09T02:29:08;16.10;1.00
9323;DHT22;4700;48.822;9.270;2022-09-09T02:31:49;16.00;1.00
9323;DHT22;4700;48.822;9.270;2022-09-09T02:34:40;15.90;1.00
9323;DHT22;4700;48.822;9.270;2022-09-09T02:37:29;15.80;1.00
9323;DHT22;4700;48.822;9.270;2022-09-09T02:40:17;15.70;1.00
9323;DHT22;4700;48.822;9.270;2022-09-09T02:43:03;15.70;1.00
9323;DHT22;4700;48.822;9.270;2022-09-09T02:46:02;15.60;1.00
9323;DHT22;4700;48.822;9.270;2022-09-09T02:48:55;15.50;1.00
9323;DHT22;4700;48.822;9.270;2022-09-09T02:51:50;15.50;1.00
9323;DHT22;4700;48.822;9.270;2022-09-09T02:54:39;15.50;1.00
9323;DHT22;4700;48.822;9.270;2022-09-09T02:57:27;15.40;1.00
9323;DHT22;4700;48.822;9.270;2022-09-09T03:00:14;15.40;1.00
9323;DHT22;4700;48.822;9.270;2022-09-09T03:03:00;15.40;1.00
9323;DHT22;4700;48.822;9.270;2022-09-09T03:05:46;15.40;1.00
9323;DHT22;4700;48.822;9.270;2022-09-09T03:08:36;15.30;1.00
9323;DHT22;4700;48.822;9.270;2022-09-09T03:11:21;15.20;1.00
9323;DHT22;4700;48.822;9.270;2022-09-09T03:14:07;15.20;1.00
9323;DHT22;4700;48.822;9.270;2022-09-09T03:16:55;15.10;1.00
9323;DHT22;4700;48.822;9.270;2022-09-09T03:19:42;15.10;1.00
9323;DHT22;4700;48.822;9.270;2022-09-09T03:22:28;15.10;1.00
9323;DHT22;4700;48.822;9.270;2022-09-09T03:25:15;15.10;1.00
9323;DHT22;4700;48.822;9.270;2022-09-09T03:28:02;15.10;1.00
9323;DHT22;4700;48.822;9.270;2022-09-09T03:30:47;14.90;1.00
9323;DHT22;4700;48.822;9.270;2022-09-09T03:33:33;14.80;1.00
9323;DHT22;4700;48.822;9.270;2022-09-09T03:36:21;14.70;1.00
9323;DHT22;4700;48.822;9.270;2022-09-09T03:39:07;14.60;1.00
9323;DHT22;4700;48.822;9.270;2022-09-09T03:41:54;14.50;1.00
9323;DHT22;4700;48.822;9.270;2022-09-09T03:44:39;14.40;1.00
9323;DHT22;4700;48.822;9.270;2022-09-09T03:47:26;14.40;1.00
9323;DHT22;4700;48.822;9.270;2022-09-09T03:50:11;14.40;1.00
9323;DHT22;4700;48.822;9.270;2022-09-09T03:52:58;14.50;1.00
9323;DHT22;4700;48.822;9.270;2022-09-09T03:55:44;14.60;1.00
9323;DHT22;4700;48.822;9.270;2022-09-09T03:58:31;14.80;1.00
9323;DHT22;4700;48.822;9.270;2022-09-09T04:01:17;15.10;1.00
9323;DHT22;4700;48.822;9.270;2022-09-09T04:04:03;15.30;1.00
9323;DHT22;4700;48.822;9.270;2022-09-09T04:06:48;15.30;1.00
9323;DHT22;4700;48.822;9.270;2022-09-09T04:09:35;15.40;1.00
9323;DHT22;4700;48.822;9.270;2022-09-09T04:12:20;15.40;1.00
9323;DHT22;4700;48.822;9.270;2022-09-09T04:15:08;15.50;1.00
9323;DHT22;4700;48.822;9.270;2022-09-09T04:17:54;15.60;1.00
9323;DHT22;4700;48.822;9.270;2022-09-09T04:20:40;15.60;1.00
9323;DHT22;4700;48.822;9.270;2022-09-09T04:23:28;15.70;1.00
9323;DHT22;4700;48.822;9.270;2022-09-09T04:26:14;15.60;1.00
9323;DHT22;4700;48.822;9.270;2022-09-09T04:28:59;15.60;1.00
9323;DHT22;4700;48.822;9.270;2022-09-09T04:31:46;15.60;1.00
9323;DHT22;4700;48.822;9.270;2022-09-09T04:34:32;15.60;1.00
9323;DHT22;4700;48.822;9.270;2022-09-09T04:37:17;15.60;1.00
9323;DHT22;4700;48.822;9.270;2022-09-09T04:40:03;15.60;1.00
9323;DHT22;4700;48.822;9.270;2022-09-09T04:42:49;15.60;1.00
9323;DHT22;4700;48.822;9.270;2022-09-09T04:45:34;15.70;1.00
9323;DHT22;4700;48.822;9.270;2022-09-09T04:48:23;15.70;1.00
9323;DHT22;4700;48.822;9.270;2022-09-09T04:51:12;15.70;1.00
9323;DHT22;4700;48.822;9.270;2022-09-09T04:53:57;15.80;1.00
9323;DHT22;4700;48.822;9.270;2022-09-09T04:56:43;15.70;1.00
9323;DHT22;4700;48.822;9.270;2022-09-09T04:59:29;15.70;1.00
9323;DHT22;4700;48.822;9.270;2022-09-09T05:02:14;15.60;1.00
9323;DHT22;4700;48.822;9.270;2022-09-09T05:05:01;15.60;1.00
9323;DHT22;4700;48.822;9.270;2022-09-09T05:07:47;15.50;1.00
9323;DHT22;4700;48.822;9.270;2022-09-09T05:10:37;15.50;1.00
9323;DHT22;4700;48.822;9.270;2022-09-09T05:13:23;15.50;1.00
9323;DHT22;4700;48.822;9.270;2022-09-09T05:16:09;15.40;1.00
9323;DHT22;4700;48.822;9.270;2022-09-09T05:18:55;15.50;1.00
9323;DHT22;4700;48.822;9.270;2022-09-09T05:21:42;15.50;1.00
9323;DHT22;4700;48.822;9.270;2022-09-09T05:24:28;15.60;1.00
9323;DHT22;4700;48.822;9.270;2022-09-09T05:27:17;15.60;1.00
9323;DHT22;4700;48.822;9.270;2022-09-09T05:30:04;15.80;1.00
9323;DHT22;4700;48.822;9.270;2022-09-09T05:32:49;16.00;1.00
9323;DHT22;4700;48.822;9.270;2022-09-09T05:35:35;16.30;1.00
9323;DHT22;4700;48.822;9.270;2022-09-09T05:38:23;16.40;1.00
9323;DHT22;4700;48.822;9.270;2022-09-09T05:41:10;16.60;1.00
9323;DHT22;4700;48.822;9.270;2022-09-09T05:43:56;16.70;1.00
9323;DHT22;4700;48.822;9.270;2022-09-09T05:46:47;16.70;1.00
9323;DHT22;4700;48.822;9.270;2022-09-09T05:49:33;16.70;1.00
9323;DHT22;4700;48.822;9.270;2022-09-09T05:52:19;16.90;1.00
9323;DHT22;4700;48.822;9.270;2022-09-09T05:55:07;17.10;1.00
9323;DHT22;4700;48.822;9.270;2022-09-09T05:57:55;17.20;1.00
9323;DHT22;4700;48.822;9.270;2022-09-09T06:00:40;17.30;1.00
9323;DHT22;4700;48.822;9.270;2022-09-09T06:03:27;17.50;1.00
9323;DHT22;4700;48.822;9.270;2022-09-09T06:06:14;17.60;1.00
9323;DHT22;4700;48.822;9.270;2022-09-09T06:09:04;17.60;1.00
9323;DHT22;4700;48.822;9.270;2022-09-09T06:11:55;17.70;1.00
9323;DHT22;4700;48.822;9.270;2022-09-09T06:14:41;17.80;1.00
9323;DHT22;4700;48.822;9.270;2022-09-09T06:17:27;17.90;1.00
9323;DHT22;4700;48.822;9.270;2022-09-09T06:20:12;18.10;1.00
9323;DHT22;4700;48.822;9.270;2022-09-09T06:22:58;18.20;1.00
9323;DHT22;4700;48.822;9.270;2022-09-09T06:25:45;18.20;1.00
9323;DHT22;4700;48.822;9.270;2022-09-09T06:28:32;18.20;1.00
9323;DHT22;4700;48.822;9.270;2022-09-09T06:31:19;18.20;1.00
9323;DHT22;4700;48.822;9.270;2022-09-09T06:34:07;18.20;1.00
9323;DHT22;4700;48.822;9.270;2022-09-09T06:36:53;18.10;1.00
9323;DHT22;4700;48.822;9.270;2022-09-09T06:39:38;18.10;1.00
9323;DHT22;4700;48.822;9.270;2022-09-09T06:42:25;18.20;1.00
9323;DHT22;4700;48.822;9.270;2022-09-09T06:45:12;18.30;1.00
9323;DHT22;4700;48.822;9.270;2022-09-09T06:47:57;18.40;1.00
9323;DHT22;4700;48.822;9.270;2022-09-09T06:50:43;18.50;1.00
9323;DHT22;4700;48.822;9.270;2022-09-09T06:53:29;18.70;1.00
9323;DHT22;4700;48.822;9.270;2022-09-09T06:56:20;18.80;1.00
9323;DHT22;4700;48.822;9.270;2022-09-09T06:59:07;19.00;1.00
9323;DHT22;4700;48.822;9.270;2022-09-09T07:01:55;19.20;1.00
9323;DHT22;4700;48.822;9.270;2022-09-09T07:04:40;19.30;1.00
9323;DHT22;4700;48.822;9.270;2022-09-09T07:07:27;19.40;1.00
9323;DHT22;4700;48.822;9.270;2022-09-09T07:10:13;19.50;1.00
9323;DHT22;4700;48.822;9.270;2022-09-09T07:12:59;19.50;1.00
9323;DHT22;4700;48.822;9.270;2022-09-09T07:15:45;19.70;1.00
9323;DHT22;4700;48.822;9.270;2022-09-09T07:18:32;19.90;1.00
9323;DHT22;4700;48.822;9.270;2022-09-09T07:21:19;20.20;1.00
9323;DHT22;4700;48.822;9.270;2022-09-09T07:24:05;20.50;1.00
9323;DHT22;4700;48.822;9.270;2022-09-09T07:26:51;20.80;1.00
9323;DHT22;4700;48.822;9.270;2022-09-09T07:29:38;21.10;1.00
9323;DHT22;4700;48.822;9.270;2022-09-09T07:32:24;21.50;1.00
9323;DHT22;4700;48.822;9.270;2022-09-09T07:35:11;21.80;1.00
9323;DHT22;4700;48.822;9.270;2022-09-09T07:37:57;22.00;1.00
9323;DHT22;4700;48.822;9.270;2022-09-09T07:40:43;22.20;1.00
9323;DHT22;4700;48.822;9.270;2022-09-09T07:43:29;22.30;1.00
9323;DHT22;4700;48.822;9.270;2022-09-09T07:46:16;22.30;1.00
9323;DHT22;4700;48.822;9.270;2022-09-09T07:49:03;22.30;1.00
9323;DHT22;4700;48.822;9.270;2022-09-09T07:51:50;22.80;1.00
9323;DHT22;4700;48.822;9.270;2022-09-09T07:54:36;24.00;1.00
9323;DHT22;4700;48.822;9.270;2022-09-09T07:57:22;25.90;1.00
9323;DHT22;4700;48.822;9.270;2022-09-09T08:00:10;27.00;1.00
9323;DHT22;4700;48.822;9.270;2022-09-09T08:02:59;27.10;1.00
9323;DHT22;4700;48.822;9.270;2022-09-09T08:05:46;25.90;1.00
9323;DHT22;4700;48.822;9.270;2022-09-09T08:08:34;26.30;1.00
9323;DHT22;4700;48.822;9.270;2022-09-09T08:11:23;27.80;1.00
9323;DHT22;4700;48.822;9.270;2022-09-09T08:14:12;30.10;1.00
9323;DHT22;4700;48.822;9.270;2022-09-09T08:16:59;33.40;1.00
9323;DHT22;4700;48.822;9.270;2022-09-09T08:19:50;37.10;1.00
9323;DHT22;4700;48.822;9.270;2022-09-09T08:22:40;39.50;1.00
9323;DHT22;4700;48.822;9.270;2022-09-09T08:25:31;41.10;1.00
9323;DHT22;4700;48.822;9.270;2022-09-09T08:28:20;42.40;1.00
9323;DHT22;4700;48.822;9.270;2022-09-09T08:31:10;42.90;1.00
9323;DHT22;4700;48.822;9.270;2022-09-09T08:33:59;42.60;1.00
9323;DHT22;4700;48.822;9.270;2022-09-09T08:36:49;42.40;1.00
9323;DHT22;4700;48.822;9.270;2022-09-09T08:39:37;43.20;1.00
9323;DHT22;4700;48.822;9.270;2022-09-09T08:42:36;43.80;1.00
9323;DHT22;4700;48.822;9.270;2022-09-09T08:45:33;45.00;1.00
9323;DHT22;4700;48.822;9.270;2022-09-09T08:48:37;45.80;1.00
9323;DHT22;4700;48.822;9.270;2022-09-09T08:51:29;46.30;1.00
9323;DHT22;4700;48.822;9.270;2022-09-09T08:54:20;45.60;1.00
9323;DHT22;4700;48.822;9.270;2022-09-09T08:57:11;42.60;1.00
9323;DHT22;4700;48.822;9.270;2022-09-09T09:00:07;38.70;1.00
9323;DHT22;4700;48.822;9.270;2022-09-09T09:03:04;39.90;1.00
9323;DHT22;4700;48.822;9.270;2022-09-09T09:06:04;39.20;1.00
9323;DHT22;4700;48.822;9.270;2022-09-09T09:09:08;37.70;1.00
9323;DHT22;4700;48.822;9.270;2022-09-09T09:12:14;33.60;1.00
9323;DHT22;4700;48.822;9.270;2022-09-09T09:15:05;32.40;1.00
9323;DHT22;4700;48.822;9.270;2022-09-09T09:17:57;33.80;1.00
9323;DHT22;4700;48.822;9.270;2022-09-09T09:20:49;32.80;1.00
9323;DHT22;4700;48.822;9.270;2022-09-09T09:23:42;29.90;1.00
9323;DHT22;4700;48.822;9.270;2022-09-09T09:26:33;29.50;1.00
9323;DHT22;4700;48.822;9.270;2022-09-09T09:29:20;29.70;1.00
9323;DHT22;4700;48.822;9.270;2022-09-09T09:32:14;29.00;1.00
9323;DHT22;4700;48.822;9.270;2022-09-09T09:35:06;28.10;1.00
9323;DHT22;4700;48.822;9.270;2022-09-09T09:37:56;27.20;1.00
9323;DHT22;4700;48.822;9.270;2022-09-09T09:40:49;26.30;1.00
9323;DHT22;4700;48.822;9.270;2022-09-09T09:43:37;25.40;1.00
9323;DHT22;4700;48.822;9.270;2022-09-09T09:46:25;24.50;1.00
9323;DHT22;4700;48.822;9.270;2022-09-09T09:49:12;23.50;1.00
9323;DHT22;4700;48.822;9.270;2022-09-09T09:52:01;22.80;1.00
9323;DHT22;4700;48.822;9.270;2022-09-09T09:54:46;23.60;1.00
9323;DHT22;4700;48.822;9.270;2022-09-09T09:57:33;26.70;1.00
9323;DHT22;4700;48.822;9.270;2022-09-09T10:00:21;27.30;1.00
9323;DHT22;4700;48.822;9.270;2022-09-09T10:03:23;26.80;1.00
9323;DHT22;4700;48.822;9.270;2022-09-09T10:06:11;25.90;1.00
9323;DHT22;4700;48.822;9.270;2022-09-09T10:08:57;25.00;1.00
9323;DHT22;4700;48.822;9.270;2022-09-09T10:11:46;24.20;1.00
9323;DHT22;4700;48.822;9.270;2022-09-09T10:14:42;23.80;1.00
9323;DHT22;4700;48.822;9.270;2022-09-09T10:17:39;23.40;1.00
9323;DHT22;4700;48.822;9.270;2022-09-09T10:20:34;23.10;1.00
9323;DHT22;4700;48.822;9.270;2022-09-09T10:23:37;23.00;1.00
9323;DHT22;4700;48.822;9.270;2022-09-09T10:26:37;23.10;1.00
9323;DHT22;4700;48.822;9.270;2022-09-09T10:29:39;23.10;1.00
9323;DHT22;4700;48.822;9.270;2022-09-09T10:32:43;23.10;1.00
9323;DHT22;4700;48.822;9.270;2022-09-09T10:35:41;23.20;1.00
9323;DHT22;4700;48.822;9.270;2022-09-09T10:38:39;23.10;1.00
9323;DHT22;4700;48.822;9.270;2022-09-09T10:41:44;23.00;1.00
9323;DHT22;4700;48.822;9.270;2022-09-09T10:44:40;22.90;1.00
9323;DHT22;4700;48.822;9.270;2022-09-09T10:50:49;23.30;1.00
9323;DHT22;4700;48.822;9.270;2022-09-09T10:53:47;23.60;1.00
9323;DHT22;4700;48.822;9.270;2022-09-09T10:56:36;23.90;1.00
9323;DHT22;4700;48.822;9.270;2022-09-09T10:59:26;24.00;1.00
9323;DHT22;4700;48.822;9.270;2022-09-09T11:02:16;23.70;1.00
9323;DHT22;4700;48.822;9.270;2022-09-09T11:05:08;24.00;1.00
9323;DHT22;4700;48.822;9.270;2022-09-09T11:07:58;24.10;1.00
9323;DHT22;4700;48.822;9.270;2022-09-09T11:10:52;24.50;1.00
9323;DHT22;4700;48.822;9.270;2022-09-09T11:13:45;24.90;1.00
9323;DHT22;4700;48.822;9.270;2022-09-09T11:16:38;25.30;1.00
9323;DHT22;4700;48.822;9.270;2022-09-09T11:19:30;25.30;1.00
9323;DHT22;4700;48.822;9.270;2022-09-09T11:22:25;25.10;1.00
9323;DHT22;4700;48.822;9.270;2022-09-09T11:25:16;25.20;1.00
9323;DHT22;4700;48.822;9.270;2022-09-09T11:28:24;25.20;1.00
9323;DHT22;4700;48.822;9.270;2022-09-09T11:31:21;24.70;1.00
9323;DHT22;4700;48.822;9.270;2022-09-09T11:34:27;23.80;1.00
9323;DHT22;4700;48.822;9.270;2022-09-09T11:37:43;23.20;1.00
9323;DHT22;4700;48.822;9.270;2022-09-09T11:40:33;22.60;1.00
9323;DHT22;4700;48.822;9.270;2022-09-09T11:43:24;22.10;1.00
9323;DHT22;4700;48.822;9.270;2022-09-09T11:46:12;21.70;1.00
9323;DHT22;4700;48.822;9.270;2022-09-09T11:49:01;21.30;1.00
9323;DHT22;4700;48.822;9.270;2022-09-09T11:51:47;21.10;1.00
9323;DHT22;4700;48.822;9.270;2022-09-09T11:54:46;21.20;1.00
9323;DHT22;4700;48.822;9.270;2022-09-09T11:57:34;21.30;1.00
9323;DHT22;4700;48.822;9.270;2022-09-09T12:00:35;21.30;1.00
9323;DHT22;4700;48.822;9.270;2022-09-09T12:03:42;21.50;1.00
9323;DHT22;4700;48.822;9.270;2022-09-09T12:06:31;21.70;1.00
9323;DHT22;4700;48.822;9.270;2022-09-09T12:09:22;21.90;1.00
9323;DHT22;4700;48.822;9.270;2022-09-09T12:12:26;22.30;1.00
9323;DHT22;4700;48.822;9.270;2022-09-09T12:15:24;22.30;1.00
9323;DHT22;4700;48.822;9.270;2022-09-09T12:18:22;22.20;1.00
9323;DHT22;4700;48.822;9.270;2022-09-09T12:21:15;22.10;1.00
9323;DHT22;4700;48.822;9.270;2022-09-09T12:24:07;22.40;1.00
9323;DHT22;4700;48.822;9.270;2022-09-09T12:26:58;22.70;1.00
9323;DHT22;4700;48.822;9.270;2022-09-09T12:29:48;22.70;1.00
9323;DHT22;4700;48.822;9.270;2022-09-09T12:32:37;22.60;1.00
9323;DHT22;4700;48.822;9.270;2022-09-09T12:35:28;22.60;1.00
9323;DHT22;4700;48.822;9.270;2022-09-09T12:38:21;22.50;1.00
9323;DHT22;4700;48.822;9.270;2022-09-09T12:41:21;22.60;1.00
9323;DHT22;4700;48.822;9.270;2022-09-09T12:44:10;22.60;1.00
9323;DHT22;4700;48.822;9.270;2022-09-09T12:46:57;22.60;1.00
9323;DHT22;4700;48.822;9.270;2022-09-09T12:49:44;22.60;1.00
9323;DHT22;4700;48.822;9.270;2022-09-09T12:52:34;22.70;1.00
9323;DHT22;4700;48.822;9.270;2022-09-09T12:55:25;22.80;1.00
9323;DHT22;4700;48.822;9.270;2022-09-09T12:58:17;22.90;1.00
9323;DHT22;4700;48.822;9.270;2022-09-09T13:01:05;23.00;1.00
9323;DHT22;4700;48.822;9.270;2022-09-09T13:03:53;23.20;1.00
9323;DHT22;4700;48.822;9.270;2022-09-09T13:06:38;23.10;1.00
9323;DHT22;4700;48.822;9.270;2022-09-09T13:09:26;23.20;1.00
9323;DHT22;4700;48.822;9.270;2022-09-09T13:12:15;23.50;1.00
9323;DHT22;4700;48.822;9.270;2022-09-09T13:15:04;23.80;1.00
9323;DHT22;4700;48.822;9.270;2022-09-09T13:17:57;24.00;1.00
9323;DHT22;4700;48.822;9.270;2022-09-09T13:20:47;23.90;1.00
9323;DHT22;4700;48.822;9.270;2022-09-09T13:23:34;23.70;1.00
9323;DHT22;4700;48.822;9.270;2022-09-09T13:26:24;23.60;1.00
9323;DHT22;4700;48.822;9.270;2022-09-09T13:29:17;23.60;1.00
9323;DHT22;4700;48.822;9.270;2022-09-09T13:32:04;23.50;1.00
9323;DHT22;4700;48.822;9.270;2022-09-09T13:34:54;23.60;1.00
9323;DHT22;4700;48.822;9.270;2022-09-09T13:37:42;23.80;1.00
9323;DHT22;4700;48.822;9.270;2022-09-09T13:40:28;24.00;1.00
9323;DHT22;4700;48.822;9.270;2022-09-09T13:43:21;24.30;1.00
9323;DHT22;4700;48.822;9.270;2022-09-09T13:46:28;24.50;1.00
9323;DHT22;4700;48.822;9.270;2022-09-09T13:49:21;24.60;1.00
9323;DHT22;4700;48.822;9.270;2022-09-09T13:52:10;24.90;1.00
9323;DHT22;4700;48.822;9.270;2022-09-09T13:54:58;24.90;1.00
9323;DHT22;4700;48.822;9.270;2022-09-09T13:57:51;24.60;1.00
9323;DHT22;4700;48.822;9.270;2022-09-09T14:00:38;24.00;1.00
9323;DHT22;4700;48.822;9.270;2022-09-09T14:03:24;23.70;1.00
9323;DHT22;4700;48.822;9.270;2022-09-09T14:06:11;23.70;1.00
9323;DHT22;4700;48.822;9.270;2022-09-09T14:08:56;23.70;1.00
9323;DHT22;4700;48.822;9.270;2022-09-09T14:11:43;23.90;1.00
9323;DHT22;4700;48.822;9.270;2022-09-09T14:14:29;24.30;1.00
9323;DHT22;4700;48.822;9.270;2022-09-09T14:17:16;24.80;1.00
9323;DHT22;4700;48.822;9.270;2022-09-09T14:20:03;25.00;1.00
9323;DHT22;4700;48.822;9.270;2022-09-09T14:22:52;25.00;1.00
9323;DHT22;4700;48.822;9.270;2022-09-09T14:25:40;24.90;1.00
9323;DHT22;4700;48.822;9.270;2022-09-09T14:28:26;24.70;1.00
9323;DHT22;4700;48.822;9.270;2022-09-09T14:31:12;24.60;1.00
9323;DHT22;4700;48.822;9.270;2022-09-09T14:34:00;24.40;1.00
9323;DHT22;4700;48.822;9.270;2022-09-09T14:36:45;24.20;1.00
9323;DHT22;4700;48.822;9.270;2022-09-09T14:39:31;24.10;1.00
9323;DHT22;4700;48.822;9.270;2022-09-09T14:42:17;23.80;1.00
9323;DHT22;4700;48.822;9.270;2022-09-09T14:45:07;23.40;1.00
9323;DHT22;4700;48.822;9.270;2022-09-09T14:47:52;23.50;1.00
9323;DHT22;4700;48.822;9.270;2022-09-09T14:50:39;23.60;1.00
9323;DHT22;4700;48.822;9.270;2022-09-09T14:53:25;23.80;1.00
9323;DHT22;4700;48.822;9.270;2022-09-09T14:56:13;23.80;1.00
9323;DHT22;4700;48.822;9.270;2022-09-09T14:58:59;23.60;1.00
9323;DHT22;4700;48.822;9.270;2022-09-09T15:01:46;23.60;1.00
9323;DHT22;4700;48.822;9.270;2022-09-09T15:04:32;23.60;1.00
9323;DHT22;4700;48.822;9.270;2022-09-09T15:07:19;23.70;1.00
9323;DHT22;4700;48.822;9.270;2022-09-09T15:10:07;23.70;1.00
9323;DHT22;4700;48.822;9.270;2022-09-09T15:12:53;23.70;1.00
9323;DHT22;4700;48.822;9.270;2022-09-09T15:15:39;23.90;1.00
9323;DHT22;4700;48.822;9.270;2022-09-09T15:18:26;23.90;1.00
9323;DHT22;4700;48.822;9.270;2022-09-09T15:21:14;24.00;1.00
9323;DHT22;4700;48.822;9.270;2022-09-09T15:24:02;23.90;1.00
9323;DHT22;4700;48.822;9.270;2022-09-09T15:26:51;23.60;1.00
9323;DHT22;4700;48.822;9.270;2022-09-09T15:29:37;23.30;1.00
9323;DHT22;4700;48.822;9.270;2022-09-09T15:32:23;23.10;1.00
9323;DHT22;4700;48.822;9.270;2022-09-09T15:35:09;22.90;1.00
9323;DHT22;4700;48.822;9.270;2022-09-09T15:37:55;22.70;1.00
9323;DHT22;4700;48.822;9.270;2022-09-09T15:40:43;22.60;1.00
9323;DHT22;4700;48.822;9.270;2022-09-09T15:43:31;22.60;1.00
9323;DHT22;4700;48.822;9.270;2022-09-09T15:46:31;22.60;1.00
9323;DHT22;4700;48.822;9.270;2022-09-09T15:49:18;22.60;1.00
9323;DHT22;4700;48.822;9.270;2022-09-09T15:52:06;22.60;1.00
9323;DHT22;4700;48.822;9.270;2022-09-09T15:54:51;22.60;1.00
9323;DHT22;4700;48.822;9.270;2022-09-09T15:57:38;22.60;1.00
9323;DHT22;4700;48.822;9.270;2022-09-09T16:00:26;22.40;1.00
9323;DHT22;4700;48.822;9.270;2022-09-09T16:03:13;22.20;1.00
9323;DHT22;4700;48.822;9.270;2022-09-09T16:05:59;21.90;1.00
9323;DHT22;4700;48.822;9.270;2022-09-09T16:08:45;21.70;1.00
9323;DHT22;4700;48.822;9.270;2022-09-09T16:11:36;21.60;1.00
9323;DHT22;4700;48.822;9.270;2022-09-09T16:14:24;21.40;1.00
9323;DHT22;4700;48.822;9.270;2022-09-09T16:17:11;21.40;1.00
9323;DHT22;4700;48.822;9.270;2022-09-09T16:19:56;21.40;1.00
9323;DHT22;4700;48.822;9.270;2022-09-09T16:22:42;21.40;1.00
9323;DHT22;4700;48.822;9.270;2022-09-09T16:25:28;21.30;1.00
9323;DHT22;4700;48.822;9.270;2022-09-09T16:28:14;21.30;1.00
9323;DHT22;4700;48.822;9.270;2022-09-09T16:31:05;21.30;1.00
9323;DHT22;4700;48.822;9.270;2022-09-09T16:33:51;21.30;1.00
9323;DHT22;4700;48.822;9.270;2022-09-09T16:36:38;21.30;1.00
9323;DHT22;4700;48.822;9.270;2022-09-09T16:39:24;21.20;1.00
9323;DHT22;4700;48.822;9.270;2022-09-09T16:42:10;21.00;1.00
9323;DHT22;4700;48.822;9.270;2022-09-09T16:44:55;20.70;1.00
9323;DHT22;4700;48.822;9.270;2022-09-09T16:47:42;20.40;1.00
9323;DHT22;4700;48.822;9.270;2022-09-09T16:50:30;20.10;1.00
9323;DHT22;4700;48.822;9.270;2022-09-09T16:53:16;19.90;1.00
9323;DHT22;4700;48.822;9.270;2022-09-09T16:56:05;19.70;1.00
9323;DHT22;4700;48.822;9.270;2022-09-09T16:58:52;19.60;1.00
9323;DHT22;4700;48.822;9.270;2022-09-09T17:01:41;19.30;1.00
9323;DHT22;4700;48.822;9.270;2022-09-09T17:04:28;19.30;1.00
9323;DHT22;4700;48.822;9.270;2022-09-09T17:07:15;19.40;1.00
9323;DHT22;4700;48.822;9.270;2022-09-09T17:10:01;19.30;1.00
9323;DHT22;4700;48.822;9.270;2022-09-09T17:12:47;19.20;1.00
9323;DHT22;4700;48.822;9.270;2022-09-09T17:15:32;19.10;1.00
9323;DHT22;4700;48.822;9.270;2022-09-09T17:18:18;18.90;1.00
9323;DHT22;4700;48.822;9.270;2022-09-09T17:21:08;18.80;1.00
9323;DHT22;4700;48.822;9.270;2022-09-09T17:23:55;18.70;1.00
9323;DHT22;4700;48.822;9.270;2022-09-09T17:26:41;18.60;1.00
9323;DHT22;4700;48.822;9.270;2022-09-09T17:29:27;18.40;1.00
9323;DHT22;4700;48.822;9.270;2022-09-09T17:34:38;18.10;1.00
9323;DHT22;4700;48.822;9.270;2022-09-09T17:37:25;18.00;1.00
9323;DHT22;4700;48.822;9.270;2022-09-09T17:40:11;18.00;1.00
9323;DHT22;4700;48.822;9.270;2022-09-09T17:42:58;18.00;1.00
9323;DHT22;4700;48.822;9.270;2022-09-09T17:45:43;18.00;1.00
9323;DHT22;4700;48.822;9.270;2022-09-09T17:48:30;17.90;1.00
9323;DHT22;4700;48.822;9.270;2022-09-09T17:51:18;17.90;1.00
9323;DHT22;4700;48.822;9.270;2022-09-09T17:54:07;17.80;1.00
9323;DHT22;4700;48.822;9.270;2022-09-09T17:56:53;17.80;1.00
9323;DHT22;4700;48.822;9.270;2022-09-09T17:59:40;17.70;1.00
9323;DHT22;4700;48.822;9.270;2022-09-09T18:02:26;17.70;1.00
9323;DHT22;4700;48.822;9.270;2022-09-09T18:05:12;17.70;1.00
9323;DHT22;4700;48.822;9.270;2022-09-09T18:07:59;17.70;1.00
9323;DHT22;4700;48.822;9.270;2022-09-09T18:10:52;17.80;1.00
9323;DHT22;4700;48.822;9.270;2022-09-09T18:13:39;17.80;1.00
9323;DHT22;4700;48.822;9.270;2022-09-09T18:16:25;17.70;1.00
9323;DHT22;4700;48.822;9.270;2022-09-09T18:19:13;17.70;1.00
9323;DHT22;4700;48.822;9.270;2022-09-09T18:21:59;17.70;1.00
9323;DHT22;4700;48.822;9.270;2022-09-09T18:24:45;17.80;1.00
9323;DHT22;4700;48.822;9.270;2022-09-09T18:27:33;17.80;1.00
9323;DHT22;4700;48.822;9.270;2022-09-09T18:30:18;17.80;1.00
9323;DHT22;4700;48.822;9.270;2022-09-09T18:33:04;17.90;1.00
9323;DHT22;4700;48.822;9.270;2022-09-09T18:35:50;18.00;1.00
9323;DHT22;4700;48.822;9.270;2022-09-09T18:38:36;17.90;1.00
9323;DHT22;4700;48.822;9.270;2022-09-09T18:41:23;18.00;1.00
9323;DHT22;4700;48.822;9.270;2022-09-09T18:44:12;18.00;1.00
9323;DHT22;4700;48.822;9.270;2022-09-09T18:47:00;18.00;1.00
9323;DHT22;4700;48.822;9.270;2022-09-09T18:49:46;18.00;1.00